createdAt,value
2017-06-20T00:00:23.071Z,8.80
2017-06-20T00:02:51.375Z,9.13
2017-06-20T00:05:19.705Z,9.40
2017-06-20T00:07:48.027Z,9.17
2017-06-20T00:10:16.357Z,8.30
2017-06-20T00:12:44.681Z,9.57
2017-06-20T00:15:13.013Z,8.87
2017-06-20T00:17:41.313Z,9.97
2017-06-20T00:20:09.663Z,9.37
2017-06-20T00:22:38.044Z,10.13
2017-06-20T00:25:06.347Z,9.63
2017-06-20T00:27:35.445Z,9.83
2017-06-20T00:30:04.515Z,9.83
2017-06-20T00:32:32.844Z,10.57
2017-06-20T00:35:01.172Z,9.67
2017-06-20T00:37:29.483Z,9.70
2017-06-20T00:39:58.597Z,10.00
2017-06-20T00:42:26.950Z,11.03
2017-06-20T00:44:55.263Z,10.77
2017-06-20T00:47:23.593Z,10.80
2017-06-20T00:49:52.332Z,11.00
2017-06-20T00:52:20.640Z,10.30
2017-06-20T00:54:48.988Z,10.57
2017-06-20T00:57:17.694Z,10.67
2017-06-20T00:59:46.036Z,10.90
2017-06-20T01:02:14.367Z,11.07
2017-06-20T01:04:43.468Z,10.10
2017-06-20T01:07:12.576Z,10.27
2017-06-20T01:09:40.901Z,11.20
2017-06-20T01:12:09.221Z,11.63
2017-06-20T01:14:37.568Z,12.00
2017-06-20T01:17:05.928Z,11.00
2017-06-20T01:19:34.251Z,12.40
2017-06-20T01:22:03.412Z,11.53
2017-06-20T01:24:31.722Z,12.40
2017-06-20T01:27:00.068Z,14.37
2017-06-20T01:29:28.466Z,14.10
2017-06-20T01:31:56.805Z,15.13
2017-06-20T01:34:25.145Z,15.90
2017-06-20T01:36:53.497Z,15.83
2017-06-20T01:39:21.897Z,16.73
2017-06-20T01:41:50.238Z,18.27
2017-06-20T01:44:18.546Z,19.10
2017-06-20T01:46:46.872Z,20.50
2017-06-20T01:49:15.972Z,20.73
2017-06-20T01:51:44.329Z,20.50
2017-06-20T01:54:12.639Z,23.20
2017-06-20T01:56:40.984Z,25.43
2017-06-20T01:59:09.361Z,24.90
2017-06-20T02:01:37.656Z,26.47
2017-06-20T02:04:06.400Z,27.97
2017-06-20T02:06:34.723Z,29.80
2017-06-20T02:09:03.064Z,31.20
2017-06-20T02:11:31.418Z,32.77
2017-06-20T02:14:00.516Z,32.13
2017-06-20T02:16:29.059Z,34.73
2017-06-20T02:18:57.393Z,35.97
2017-06-20T02:21:25.716Z,35.40
2017-06-20T02:23:54.440Z,37.93
2017-06-20T02:26:22.762Z,38.30
2017-06-20T02:28:51.104Z,42.23
2017-06-20T02:31:19.427Z,40.90
2017-06-20T02:33:49.289Z,40.53
2017-06-20T02:36:17.617Z,44.03
2017-06-20T02:38:45.949Z,42.07
2017-06-20T02:41:14.300Z,44.83
2017-06-20T02:43:42.649Z,46.60
2017-06-20T02:46:10.993Z,46.00
2017-06-20T02:48:39.337Z,47.37
2017-06-20T02:51:08.453Z,45.83
2017-06-20T02:53:36.780Z,46.13
2017-06-20T02:56:05.529Z,48.57
2017-06-20T02:58:33.844Z,50.00
2017-06-20T03:01:02.195Z,49.60
2017-06-20T03:03:30.509Z,52.03
2017-06-20T03:05:58.921Z,52.97
2017-06-20T03:08:27.248Z,53.23
2017-06-20T03:11:07.543Z,51.43
2017-06-20T03:13:36.621Z,51.10
2017-06-20T03:16:04.935Z,50.97
2017-06-20T03:18:33.641Z,55.37
2017-06-20T03:21:02.737Z,54.57
2017-06-20T03:23:31.070Z,53.10
2017-06-20T03:26:00.152Z,53.17
2017-06-20T03:28:28.476Z,53.43
2017-06-20T03:30:56.827Z,52.60
2017-06-20T03:33:25.917Z,56.83
2017-06-20T03:35:54.693Z,56.40
2017-06-20T03:38:23.793Z,60.53
2017-06-20T03:40:52.897Z,55.90
2017-06-20T03:43:22.043Z,58.40
2017-06-20T03:45:50.396Z,54.23
2017-06-20T03:48:18.720Z,57.80
2017-06-20T03:50:47.086Z,56.53
2017-06-20T03:53:15.433Z,55.90
2017-06-20T03:55:43.760Z,54.40
2017-06-20T03:58:12.872Z,59.00
2017-06-20T04:00:41.596Z,59.30
2017-06-20T04:03:09.961Z,54.53
2017-06-20T04:05:38.333Z,57.60
2017-06-20T04:08:06.638Z,54.33
2017-06-20T04:10:35.375Z,56.00
2017-06-20T04:13:03.692Z,52.60
2017-06-20T04:15:32.020Z,53.23
2017-06-20T04:18:01.100Z,53.83
2017-06-20T04:20:29.465Z,53.27
2017-06-20T04:22:57.781Z,51.60
2017-06-20T04:25:26.136Z,53.87
2017-06-20T04:27:55.315Z,48.87
2017-06-20T04:30:23.705Z,51.83
2017-06-20T04:32:52.032Z,51.83
2017-06-20T04:35:20.449Z,49.47
2017-06-20T04:37:48.760Z,52.37
2017-06-20T04:40:17.888Z,47.57
2017-06-20T04:42:46.976Z,52.20
2017-06-20T04:45:15.313Z,55.90
2017-06-20T04:47:43.676Z,47.53
2017-06-20T04:50:11.997Z,48.80
2017-06-20T04:52:40.355Z,47.30
2017-06-20T04:55:09.443Z,47.07
2017-06-20T04:57:38.548Z,45.80
2017-06-20T05:00:06.864Z,43.43
2017-06-20T05:02:35.613Z,40.70
2017-06-20T05:05:04.701Z,40.83
2017-06-20T05:07:33.787Z,40.73
2017-06-20T05:10:02.131Z,38.40
2017-06-20T05:12:30.448Z,34.77
2017-06-20T05:14:59.545Z,32.60
2017-06-20T05:17:28.632Z,30.97
2017-06-20T05:19:57.739Z,28.37
2017-06-20T05:22:26.820Z,28.13
2017-06-20T05:24:55.948Z,28.80
2017-06-20T05:27:24.275Z,26.23
2017-06-20T05:29:52.617Z,24.00
2017-06-20T05:32:20.951Z,24.03
2017-06-20T05:34:49.287Z,22.97
2017-06-20T05:37:17.637Z,23.33
2017-06-20T05:39:46.137Z,23.70
2017-06-20T05:42:14.465Z,23.37
2017-06-20T05:44:43.549Z,24.30
2017-06-20T05:47:12.645Z,25.13
2017-06-20T05:49:41.764Z,24.27
2017-06-20T05:52:10.849Z,23.07
2017-06-20T05:54:39.956Z,21.90
2017-06-20T05:57:08.301Z,22.97
2017-06-20T05:59:36.630Z,21.43
2017-06-20T06:02:04.977Z,20.00
2017-06-20T06:04:33.352Z,20.87
2017-06-20T06:07:01.720Z,20.43
2017-06-20T06:09:30.065Z,18.87
2017-06-20T06:11:58.770Z,20.13
2017-06-20T06:14:27.149Z,21.67
2017-06-20T06:16:55.518Z,19.37
2017-06-20T06:19:23.873Z,16.57
2017-06-20T06:21:52.283Z,16.83
2017-06-20T06:24:20.665Z,16.33
2017-06-20T06:26:49.752Z,15.00
2017-06-20T06:29:18.222Z,16.50
2017-06-20T06:31:46.528Z,17.00
2017-06-20T06:34:15.614Z,11.10
2017-06-20T06:36:43.956Z,12.40
2017-06-20T06:39:12.278Z,8.50
2017-06-20T06:41:41.384Z,8.97
2017-06-20T06:44:09.692Z,11.50
2017-06-20T06:46:38.436Z,8.10
2017-06-20T06:49:07.214Z,12.00
2017-06-20T06:51:35.533Z,10.73
2017-06-20T06:54:03.836Z,9.07
2017-06-20T06:56:44.206Z,7.40
2017-06-20T06:59:12.613Z,7.07
2017-06-20T07:01:41.728Z,11.23
2017-06-20T07:04:10.756Z,7.50
2017-06-20T07:06:42.288Z,6.87
2017-06-20T07:09:11.328Z,7.47
2017-06-20T07:11:39.626Z,7.27
2017-06-20T07:14:08.716Z,6.67
2017-06-20T07:16:37.484Z,7.33
2017-06-20T07:19:06.619Z,8.50
2017-06-20T07:21:35.733Z,6.43
2017-06-20T07:24:04.469Z,5.80
2017-06-20T07:26:33.539Z,9.20
2017-06-20T07:29:01.841Z,8.60
2017-06-20T07:31:30.176Z,6.00
2017-06-20T07:33:58.502Z,7.03
2017-06-20T07:36:26.822Z,6.33
2017-06-20T07:38:55.131Z,5.90
2017-06-20T07:41:23.468Z,6.73
2017-06-20T07:43:51.823Z,6.13
2017-06-20T07:46:20.216Z,7.00
2017-06-20T07:48:48.533Z,6.17
2017-06-20T07:51:16.873Z,8.43
2017-06-20T07:53:45.612Z,6.17
2017-06-20T07:56:13.978Z,4.30
2017-06-20T07:58:42.291Z,4.27
2017-06-20T08:01:11.404Z,6.03
2017-06-20T08:03:39.817Z,5.10
2017-06-20T08:06:08.173Z,6.20
2017-06-20T08:08:36.509Z,6.20
2017-06-20T08:11:04.850Z,6.23
2017-06-20T08:13:34.160Z,6.23
2017-06-20T08:16:03.348Z,5.47
2017-06-20T08:18:31.685Z,5.40
2017-06-20T08:21:15.833Z,7.27
2017-06-20T08:23:44.153Z,7.87
2017-06-20T08:26:12.532Z,6.33
2017-06-20T08:28:40.956Z,7.87
2017-06-20T08:31:09.252Z,8.00
2017-06-20T08:33:37.585Z,5.10
2017-06-20T08:36:05.988Z,6.90
2017-06-20T08:38:34.849Z,7.07
2017-06-20T08:41:03.503Z,6.20
2017-06-20T08:43:33.282Z,5.60
2017-06-20T08:46:02.338Z,7.07
2017-06-20T08:48:30.692Z,6.80
2017-06-20T08:50:59.089Z,5.70
2017-06-20T08:53:27.468Z,6.00
2017-06-20T08:55:55.791Z,8.30
2017-06-20T08:58:24.164Z,6.97
2017-06-20T09:00:52.499Z,6.50
2017-06-20T09:03:20.892Z,5.67
2017-06-20T09:05:49.262Z,7.30
2017-06-20T09:08:17.701Z,7.27
2017-06-20T09:10:46.049Z,6.03
2017-06-20T09:13:15.137Z,6.07
2017-06-20T09:15:44.925Z,8.73
2017-06-20T09:18:13.266Z,6.10
2017-06-20T09:20:41.581Z,6.40
2017-06-20T09:23:09.890Z,5.73
2017-06-20T09:25:39.310Z,5.93
2017-06-20T09:28:07.662Z,6.43
2017-06-20T09:30:36.093Z,8.80
2017-06-20T09:33:04.435Z,6.60
2017-06-20T09:35:32.990Z,9.13
2017-06-20T09:38:01.317Z,5.00
2017-06-20T09:40:29.633Z,7.87
2017-06-20T09:42:57.991Z,4.93
2017-06-20T09:45:28.185Z,6.70
2017-06-20T09:47:56.581Z,8.20
2017-06-20T09:50:24.901Z,6.70
2017-06-20T09:52:53.997Z,8.53
2017-06-20T09:55:22.325Z,6.93
2017-06-20T09:57:50.730Z,8.63
2017-06-20T10:00:19.201Z,6.40
2017-06-20T10:02:47.537Z,6.57
2017-06-20T10:05:15.905Z,13.60
2017-06-20T10:07:44.246Z,8.30
2017-06-20T10:10:12.588Z,8.93
2017-06-20T10:12:40.954Z,9.83
2017-06-20T10:15:09.283Z,6.47
2017-06-20T10:17:37.599Z,6.53
2017-06-20T10:20:06.000Z,6.77
2017-06-20T10:22:34.310Z,7.23
2017-06-20T10:25:03.357Z,5.10
2017-06-20T10:27:31.721Z,7.30
2017-06-20T10:30:00.808Z,8.23
2017-06-20T10:32:29.341Z,8.10
2017-06-20T10:34:57.711Z,4.60
2017-06-20T10:37:26.005Z,5.97
2017-06-20T10:39:54.384Z,4.77
2017-06-20T10:42:22.735Z,5.90
2017-06-20T10:44:51.486Z,6.27
2017-06-20T10:47:19.937Z,3.90
2017-06-20T10:49:48.407Z,5.80
2017-06-20T10:52:16.741Z,4.30
2017-06-20T10:54:45.057Z,3.40
2017-06-20T10:57:13.390Z,3.67
2017-06-20T10:59:42.413Z,3.17
2017-06-20T11:02:11.133Z,3.30
2017-06-20T11:04:40.063Z,3.70
2017-06-20T11:07:08.402Z,3.43
2017-06-20T11:09:36.733Z,2.50
2017-06-20T11:12:05.111Z,2.73
2017-06-20T11:14:33.427Z,4.70
2017-06-20T11:17:01.752Z,3.33
2017-06-20T11:19:30.289Z,1.60
2017-06-20T11:21:58.660Z,5.23
2017-06-20T11:24:26.965Z,1.70
2017-06-20T11:26:55.302Z,3.00
2017-06-20T11:29:24.273Z,3.80
2017-06-20T11:31:52.560Z,2.23
2017-06-20T11:34:20.929Z,2.73
2017-06-20T11:36:49.322Z,1.57
2017-06-20T11:39:17.681Z,2.00
2017-06-20T11:41:46.041Z,2.80
2017-06-20T11:44:14.452Z,3.97
2017-06-20T11:46:42.796Z,2.03
2017-06-20T11:49:11.122Z,2.60
2017-06-20T11:51:39.503Z,2.77
2017-06-20T11:54:08.760Z,3.30
2017-06-20T11:56:37.856Z,3.80
2017-06-20T11:59:06.150Z,1.40
2017-06-20T12:01:34.485Z,2.40
2017-06-20T12:04:02.871Z,4.30
2017-06-20T12:06:31.226Z,3.73
2017-06-20T12:09:00.451Z,5.03
2017-06-20T12:11:28.805Z,3.27
2017-06-20T12:13:57.142Z,6.33
2017-06-20T12:16:25.525Z,5.23
2017-06-20T12:18:53.949Z,2.77
2017-06-20T12:21:22.317Z,2.07
2017-06-20T12:23:50.654Z,1.80
2017-06-20T12:26:19.013Z,3.70
2017-06-20T12:28:47.408Z,3.57
2017-06-20T12:31:16.582Z,1.80
2017-06-20T12:33:44.953Z,4.33
2017-06-20T12:36:13.285Z,2.63
2017-06-20T12:38:41.622Z,3.10
2017-06-20T12:41:09.959Z,3.60
2017-06-20T12:43:38.320Z,3.67
2017-06-20T12:46:06.685Z,4.60
2017-06-20T12:48:35.068Z,3.47
2017-06-20T12:51:03.431Z,3.60
2017-06-20T12:53:31.956Z,3.50
2017-06-20T12:56:01.149Z,2.73
2017-06-20T12:58:29.493Z,4.03
2017-06-20T13:00:57.854Z,5.53
2017-06-20T13:03:26.192Z,4.80
2017-06-20T13:05:54.590Z,3.30
2017-06-20T13:08:23.023Z,3.27
2017-06-20T13:10:52.178Z,6.70
2017-06-20T13:13:20.502Z,4.07
2017-06-20T13:15:48.874Z,3.60
2017-06-20T13:18:17.957Z,3.80
2017-06-20T13:20:46.581Z,5.90
2017-06-20T13:23:14.932Z,3.77
2017-06-20T13:25:44.024Z,4.97
2017-06-20T13:28:12.737Z,5.27
2017-06-20T13:30:41.586Z,2.73
2017-06-20T13:33:09.931Z,2.90
2017-06-20T13:35:38.273Z,3.37
2017-06-20T13:38:06.587Z,4.40
2017-06-20T13:40:34.922Z,4.10
2017-06-20T13:43:03.309Z,6.53
2017-06-20T13:45:31.669Z,4.87
2017-06-20T13:48:00.055Z,4.00
2017-06-20T13:50:28.437Z,3.10
2017-06-20T13:52:57.506Z,4.00
2017-06-20T13:55:25.853Z,4.53
2017-06-20T13:57:54.255Z,3.63
2017-06-20T14:00:22.649Z,5.47
2017-06-20T14:02:51.009Z,2.57
2017-06-20T14:05:19.332Z,3.23
2017-06-20T14:07:47.742Z,4.47
2017-06-20T14:10:16.156Z,4.40
2017-06-20T14:12:44.512Z,2.63
2017-06-20T14:15:12.934Z,3.00
2017-06-20T14:17:41.311Z,3.50
2017-06-20T14:20:09.738Z,3.10
2017-06-20T14:22:38.192Z,3.90
2017-06-20T14:25:06.569Z,2.73
2017-06-20T14:27:35.751Z,6.60
2017-06-20T14:30:04.065Z,5.60
2017-06-20T14:32:32.387Z,3.10
2017-06-20T14:35:00.736Z,2.97
2017-06-20T14:37:29.178Z,4.93
2017-06-20T14:39:57.678Z,2.80
2017-06-20T14:42:26.068Z,2.80
2017-06-20T14:44:54.457Z,5.43
2017-06-20T14:47:23.568Z,2.07
2017-06-20T14:49:52.009Z,2.00
2017-06-20T14:52:20.389Z,3.50
2017-06-20T14:54:49.310Z,3.80
2017-06-20T14:57:17.623Z,4.00
2017-06-20T14:59:45.975Z,3.70
2017-06-20T15:02:14.471Z,4.00
2017-06-20T15:04:43.543Z,3.43
2017-06-20T15:07:13.528Z,4.47
2017-06-20T15:09:41.876Z,1.70
2017-06-20T15:12:10.200Z,6.27
2017-06-20T15:14:38.606Z,7.70
2017-06-20T15:17:07.004Z,4.57
2017-06-20T15:19:35.408Z,2.80
2017-06-20T15:22:03.752Z,2.90
2017-06-20T15:24:32.488Z,3.90
2017-06-20T15:27:01.184Z,3.73
2017-06-20T15:29:29.641Z,4.20
2017-06-20T15:31:58.952Z,4.27
2017-06-20T15:34:27.280Z,4.00
2017-06-20T15:36:55.689Z,3.73
2017-06-20T15:39:25.159Z,3.53
2017-06-20T15:41:53.807Z,5.07
2017-06-20T15:44:22.185Z,3.60
2017-06-20T15:46:50.582Z,3.00
2017-06-20T15:49:19.714Z,4.30
2017-06-20T15:51:48.331Z,3.77
2017-06-20T15:54:17.126Z,4.37
2017-06-20T15:56:45.516Z,3.70
2017-06-20T15:59:13.886Z,2.50
2017-06-20T16:01:42.384Z,2.00
2017-06-20T16:04:10.815Z,2.60
2017-06-20T16:06:40.018Z,4.47
2017-06-20T16:09:08.402Z,6.67
2017-06-20T16:11:36.873Z,5.33
2017-06-20T16:14:05.332Z,5.80
2017-06-20T16:16:34.064Z,6.00
2017-06-20T16:19:02.421Z,4.90
2017-06-20T16:21:30.829Z,5.30
2017-06-20T16:23:59.242Z,3.53
2017-06-20T16:26:28.386Z,4.80
2017-06-20T16:28:56.738Z,2.63
2017-06-20T16:31:25.087Z,3.00
2017-06-20T16:33:53.412Z,5.33
2017-06-20T16:36:22.285Z,4.90
2017-06-20T16:38:50.705Z,3.60
2017-06-20T16:41:19.861Z,6.23
2017-06-20T16:43:48.640Z,3.73
2017-06-20T16:46:16.985Z,2.80
2017-06-20T16:48:46.063Z,5.50
2017-06-20T16:51:14.443Z,5.20
2017-06-20T16:53:42.891Z,3.40
2017-06-20T16:56:11.390Z,3.00
2017-06-20T16:58:40.578Z,4.67
2017-06-20T17:01:09.043Z,3.63
2017-06-20T17:03:37.365Z,3.40
2017-06-20T17:06:05.706Z,3.27
2017-06-20T17:08:34.014Z,2.30
2017-06-20T17:11:02.340Z,4.30
2017-06-20T17:13:30.904Z,4.53
2017-06-20T17:15:59.244Z,9.40
2017-06-20T17:18:27.587Z,4.77
2017-06-20T17:20:56.002Z,2.90
2017-06-20T17:23:24.331Z,3.50
2017-06-20T17:25:53.025Z,2.70
2017-06-20T17:28:21.362Z,2.37
2017-06-20T17:30:49.676Z,5.40
2017-06-20T17:33:18.079Z,4.37
2017-06-20T17:35:46.405Z,7.77
2017-06-20T17:38:14.760Z,4.13
2017-06-20T17:40:43.079Z,8.33
2017-06-20T17:43:11.385Z,6.50
2017-06-20T17:45:39.776Z,5.67
2017-06-20T17:50:42.741Z,4.10
2017-06-20T17:53:11.067Z,3.67
2017-06-20T17:55:39.372Z,2.10
2017-06-20T17:58:07.707Z,4.70
2017-06-20T18:00:36.794Z,3.77
2017-06-20T18:03:05.125Z,5.30
2017-06-20T18:05:33.451Z,4.53
2017-06-20T18:08:01.782Z,3.23
2017-06-20T18:10:30.114Z,6.50
2017-06-20T18:12:58.460Z,6.67
2017-06-20T18:15:26.798Z,2.87
2017-06-20T18:17:55.897Z,3.83
2017-06-20T18:20:25.055Z,5.17
2017-06-20T18:22:53.356Z,1.47
2017-06-20T18:25:22.482Z,5.10
2017-06-20T18:27:50.854Z,5.10
2017-06-20T18:30:19.279Z,2.87
2017-06-20T18:32:47.695Z,1.90
2017-06-20T18:35:16.793Z,3.10
2017-06-20T18:37:45.544Z,7.00
2017-06-20T18:40:13.902Z,3.60
2017-06-20T18:42:42.242Z,6.67
2017-06-20T18:45:10.698Z,3.80
2017-06-20T18:47:39.056Z,4.67
2017-06-20T18:50:07.426Z,5.07
2017-06-20T18:52:35.744Z,3.10
2017-06-20T18:55:04.831Z,5.17
2017-06-20T18:57:33.945Z,4.17
2017-06-20T19:00:02.277Z,2.73
2017-06-20T19:02:30.616Z,3.90
2017-06-20T19:04:58.938Z,6.00
2017-06-20T19:07:27.276Z,4.20
2017-06-20T19:09:55.607Z,4.73
2017-06-20T19:12:25.006Z,1.90
2017-06-20T19:14:53.320Z,5.33
2017-06-20T19:17:21.629Z,6.27
2017-06-20T19:19:50.032Z,5.57
2017-06-20T19:22:18.358Z,4.63
2017-06-20T19:24:47.096Z,6.43
2017-06-20T19:27:15.500Z,4.57
2017-06-20T19:29:44.623Z,3.73
2017-06-20T19:32:12.934Z,4.20
2017-06-20T19:34:41.253Z,3.77
2017-06-20T19:37:09.598Z,2.80
2017-06-20T19:39:37.943Z,4.47
2017-06-20T19:42:06.325Z,4.10
2017-06-20T19:44:35.026Z,6.37
2017-06-20T19:47:03.752Z,4.63
2017-06-20T19:49:32.847Z,4.17
2017-06-20T19:52:01.190Z,3.10
2017-06-20T19:54:29.492Z,6.57
2017-06-20T19:56:57.881Z,2.93
2017-06-20T19:59:33.550Z,4.97
2017-06-20T20:02:16.797Z,3.63
2017-06-20T20:04:45.122Z,3.93
2017-06-20T20:07:14.290Z,6.10
2017-06-20T20:09:42.618Z,3.97
2017-06-20T20:12:10.960Z,4.53
2017-06-20T20:14:49.180Z,5.30
2017-06-20T20:17:17.519Z,6.37
2017-06-20T20:19:47.071Z,4.70
2017-06-20T20:22:16.181Z,6.30
2017-06-20T20:24:44.498Z,4.93
2017-06-20T20:27:13.010Z,3.23
2017-06-20T20:29:42.105Z,5.70
2017-06-20T20:32:10.409Z,3.50
2017-06-20T20:34:38.758Z,5.07
2017-06-20T20:37:07.155Z,3.10
2017-06-20T20:39:35.497Z,4.27
2017-06-20T20:42:03.814Z,5.70
2017-06-20T20:44:32.193Z,2.47
2017-06-20T20:47:00.505Z,2.20
2017-06-20T20:49:28.853Z,4.00
2017-06-20T20:51:57.194Z,4.10
2017-06-20T20:54:25.485Z,5.90
2017-06-20T20:56:53.812Z,6.53
2017-06-20T20:59:22.127Z,2.77
2017-06-20T21:01:51.233Z,4.03
2017-06-20T21:04:21.315Z,4.30
2017-06-20T21:06:49.640Z,8.43
2017-06-20T21:09:18.011Z,4.40
2017-06-20T21:11:46.351Z,5.40
2017-06-20T21:14:14.669Z,4.30
2017-06-20T21:16:43.418Z,4.90
2017-06-20T21:19:11.744Z,5.47
2017-06-20T21:21:40.072Z,3.87
2017-06-20T21:24:08.413Z,6.23
2017-06-20T21:26:36.704Z,3.00
2017-06-20T21:29:05.021Z,7.30
2017-06-20T21:31:33.365Z,4.43
2017-06-20T21:34:01.744Z,2.60
2017-06-20T21:36:30.089Z,4.80
2017-06-20T21:38:58.497Z,2.63
2017-06-20T21:41:27.244Z,4.10
2017-06-20T21:43:55.735Z,6.63
2017-06-20T21:46:24.072Z,6.30
2017-06-20T21:48:52.382Z,2.93
2017-06-20T21:51:20.736Z,11.07
2017-06-20T21:53:49.937Z,5.70
2017-06-20T21:56:18.666Z,3.50
2017-06-20T21:58:46.995Z,3.97
2017-06-20T22:01:16.094Z,1.90
2017-06-20T22:03:44.413Z,5.80
2017-06-20T22:06:12.815Z,4.83
2017-06-20T22:08:41.140Z,3.70
2017-06-20T22:11:14.096Z,4.50
2017-06-20T22:13:42.429Z,4.33
2017-06-20T22:16:10.741Z,3.73
2017-06-20T22:18:39.077Z,6.73
2017-06-20T22:21:07.998Z,4.90
2017-06-20T22:23:43.228Z,4.23
2017-06-20T22:26:11.557Z,5.70
2017-06-20T22:28:39.874Z,4.70
2017-06-20T22:31:08.199Z,5.00
2017-06-20T22:33:37.293Z,5.23
2017-06-20T22:36:05.642Z,3.70
2017-06-20T22:38:33.949Z,3.30
2017-06-20T22:41:03.081Z,3.67
2017-06-20T22:43:31.400Z,4.20
2017-06-20T22:45:59.721Z,5.47
2017-06-20T22:48:28.064Z,5.70
2017-06-20T22:50:57.174Z,3.60
2017-06-20T22:56:21.448Z,4.97
2017-06-20T22:58:49.754Z,3.57
2017-06-20T23:01:18.830Z,4.10
2017-06-20T23:03:47.198Z,6.43
2017-06-20T23:06:15.532Z,5.10
2017-06-20T23:08:43.848Z,5.20
2017-06-20T23:11:12.190Z,2.90
2017-06-20T23:13:40.553Z,4.40
2017-06-20T23:16:08.860Z,6.80
2017-06-20T23:18:37.193Z,3.33
2017-06-20T23:21:05.522Z,3.87
2017-06-20T23:23:33.869Z,5.77
2017-06-20T23:26:02.164Z,5.47
2017-06-20T23:28:30.496Z,3.07
2017-06-20T23:30:58.806Z,7.77
2017-06-20T23:33:27.145Z,8.63
2017-06-20T23:35:56.229Z,6.60
2017-06-20T23:38:24.553Z,6.33
2017-06-20T23:40:52.894Z,6.23
2017-06-20T23:43:21.210Z,8.27
2017-06-20T23:45:49.560Z,5.50
2017-06-20T23:48:17.910Z,3.70
2017-06-20T23:50:46.252Z,4.70
2017-06-20T23:53:14.586Z,4.77
2017-06-20T23:55:42.895Z,8.17
2017-06-20T23:58:11.213Z,5.77
